Pipe Creek, Texas
Current Conditions -  °F | °C
As of 3:35 AM on Sunday 23 Nov 2014 (Local Time) from K5C1 Reporting Station
Scattered Clouds Scattered Clouds  
Wind Chill: 54°   Ceiling: Unl
Heat Index: 54°   Visibility: 10mi
Dew Point: 52°   Wind: 3mph
Humidity: 94%   Direction: 230°SW
Pressure: 29.73"   Gusts: NA
Location:  29.69°N, 98.94°W
Report Text: K5C1 230935Z AUTO 23003KT 10SM SCT085 12/11 A2973 RMK AO1
Loading
Personal Weather Stations






























Interactive Weather Map New forecast layout! Learn more

10-Day Weather Forecast

Advertisements
Track Severe Weather on mobile